Time;durP1;ratioP1;P1;durP2;ratioP2;P2;SDS_P1;SDS_P2;PMS_P1;PMS_P2;Temp;Humidity;BMP_temperature;BMP_pressure;BME280_temperature;BME280_humidity;BME280_pressure;Samples;Min_cycle;Max_cycle;Signal;HPM_P1;HPM_P2
2023/05/13 00:01:25;;;;;;;9.73;6.10;;;10.40;99.90;;;-148.53;100.00;63986.66;5052334;28;20048;-78
2023/05/13 00:03:51;;;;;;;13.05;7.07;;;10.40;99.90;;;-148.53;100.00;63986.66;5067445;28;20041;-79
2023/05/13 00:06:17;;;;;;;9.20;6.05;;;10.40;99.90;;;-148.53;100.00;63986.66;5054254;28;20461;-79
2023/05/13 00:08:43;;;;;;;13.18;6.45;;;10.40;99.90;;;-148.53;100.00;63986.66;5067636;28;20048;-79
2023/05/13 00:11:09;;;;;;;9.63;5.75;;;10.50;99.90;;;-148.53;100.00;63986.66;5060826;28;20508;-79
2023/05/13 00:13:34;;;;;;;7.63;5.78;;;10.40;99.90;;;-148.53;100.00;63986.66;5060378;28;20496;-79
2023/05/13 00:16:01;;;;;;;9.43;6.22;;;10.30;99.90;;;-148.53;100.00;63986.66;5053703;28;20045;-79
2023/05/13 00:18:27;;;;;;;10.18;6.03;;;10.30;99.90;;;-148.53;100.00;63986.66;5053824;28;20041;-79
2023/05/13 00:20:52;;;;;;;8.85;5.68;;;10.20;99.90;;;-148.53;100.00;63986.66;5053818;28;20094;-79
2023/05/13 00:23:18;;;;;;;8.80;6.47;;;10.10;99.90;;;-148.53;100.00;63986.66;5058408;28;20053;-80
2023/05/13 00:25:44;;;;;;;8.68;5.15;;;10.20;99.90;;;-148.53;100.00;63986.66;5052989;28;20132;-79
2023/05/13 00:28:12;;;;;;;9.55;5.90;;;10.20;99.90;;;-148.53;100.00;63986.66;5052215;28;20546;-80
2023/05/13 00:30:40;;;;;;;9.57;5.85;;;10.20;99.90;;;-148.53;100.00;63986.66;5051647;28;20033;-80
2023/05/13 00:33:06;;;;;;;;;;;10.30;99.90;;;-148.53;100.00;63986.66;5073790;28;20033;-80
2023/05/13 00:35:33;;;;;;;9.43;5.40;;;10.20;99.90;;;-148.53;100.00;63986.66;5057527;28;19917;-79
2023/05/13 00:37:58;;;;;;;8.57;5.75;;;10.10;99.90;;;-148.53;100.00;63986.66;5051792;28;20091;-79
2023/05/13 00:40:24;;;;;;;8.52;5.03;;;10.00;99.90;;;-148.53;100.00;63986.66;5053605;28;20118;-79
2023/05/13 00:42:51;;;;;;;8.50;5.78;;;9.90;99.90;;;-148.53;100.00;63986.66;5053081;28;20045;-79
2023/05/13 00:45:17;;;;;;;8.75;5.72;;;9.90;99.90;;;-148.53;100.00;63986.66;5068832;28;20032;-79
2023/05/13 00:47:43;;;;;;;10.43;6.10;;;9.90;99.90;;;-148.53;100.00;63986.66;5050797;28;20033;-79
2023/05/13 00:50:10;;;;;;;9.57;5.82;;;9.80;99.90;;;-148.53;100.00;63986.66;5052739;28;20036;-79
2023/05/13 00:52:38;;;;;;;10.27;5.60;;;9.80;99.90;;;-148.53;100.00;63986.66;5052814;28;20029;-79
2023/05/13 00:55:05;;;;;;;8.43;5.18;;;9.70;99.90;;;-148.53;100.00;63986.66;5053292;28;20397;-79
2023/05/13 00:57:32;;;;;;;8.18;5.93;;;9.70;99.90;;;-148.53;100.00;63986.66;5051834;28;20036;-79
2023/05/13 00:59:58;;;;;;;8.48;5.47;;;9.70;99.90;;;-148.53;100.00;63986.66;5051478;28;20028;-79
2023/05/13 01:02:36;;;;;;;7.82;5.68;;;9.70;99.90;;;-148.53;100.00;63986.66;5058988;28;20033;-79
2023/05/13 01:05:36;;;;;;;10.30;7.43;;;9.60;99.90;;;-148.53;100.00;63986.66;5057254;28;20090;-79
2023/05/13 01:08:35;;;;;;;9.32;6.60;;;9.50;99.90;;;-148.53;100.00;63986.66;5066034;28;20543;-79
2023/05/13 01:11:16;;;;;;;8.63;6.82;;;9.60;99.90;;;-148.53;100.00;63986.66;5052539;28;20045;-79
2023/05/13 01:13:47;;;;;;;11.40;7.68;;;9.60;99.90;;;-148.53;100.00;63986.66;5056653;28;20159;-79
2023/05/13 01:16:19;;;;;;;9.20;6.95;;;9.60;99.90;;;-148.53;100.00;63986.66;5056920;28;20033;-79
2023/05/13 01:18:57;;;;;;;9.20;6.55;;;9.60;99.90;;;-148.53;100.00;63986.66;5058994;28;20029;-81
2023/05/13 01:21:25;;;;;;;12.15;6.93;;;9.70;99.90;;;-148.53;100.00;63986.66;5054518;28;20028;-80
2023/05/13 01:23:51;;;;;;;9.02;7.00;;;9.60;99.90;;;-148.53;100.00;63986.66;5057965;28;20045;-79
2023/05/13 01:26:18;;;;;;;10.13;7.25;;;9.60;99.90;;;-148.53;100.00;63986.66;5051346;28;20113;-80
2023/05/13 01:28:44;;;;;;;12.10;6.90;;;9.40;99.90;;;-148.53;100.00;63986.66;5055283;28;20052;-79
2023/05/13 01:31:13;;;;;;;13.27;7.38;;;9.20;99.90;;;-148.53;100.00;63986.66;5057072;28;20044;-79
2023/05/13 01:33:42;;;;;;;8.43;6.35;;;9.20;99.90;;;-148.53;100.00;63986.66;5053384;28;20049;-80
2023/05/13 01:36:09;;;;;;;10.10;7.35;;;9.00;99.90;;;-148.53;100.00;63986.66;5054972;28;20033;-79
2023/05/13 01:38:38;;;;;;;12.25;7.40;;;9.00;99.90;;;-148.53;100.00;63986.66;5051185;28;20040;-79
2023/05/13 01:41:04;;;;;;;10.15;7.45;;;9.00;99.90;;;-148.53;100.00;63986.66;5058713;28;20362;-79
2023/05/13 01:43:30;;;;;;;10.20;6.72;;;9.00;99.90;;;-148.53;100.00;63986.66;5051385;28;20036;-80
2023/05/13 01:45:59;;;;;;;10.43;7.35;;;9.10;99.90;;;-148.53;100.00;63986.66;5060072;28;20069;-80
2023/05/13 01:48:25;;;;;;;9.48;7.43;;;9.00;99.90;;;-148.53;100.00;63986.66;5058544;28;20044;-80
2023/05/13 01:50:51;;;;;;;12.20;7.72;;;8.80;99.90;;;-148.53;100.00;63986.66;5066932;28;20033;-80
2023/05/13 01:53:18;;;;;;;10.82;7.50;;;8.70;99.90;;;-148.53;100.00;63986.66;5050624;28;20040;-80
2023/05/13 01:55:45;;;;;;;11.57;7.90;;;8.70;99.90;;;-148.53;100.00;63986.66;5050331;28;20086;-80
2023/05/13 01:58:10;;;;;;;9.30;7.13;;;8.80;99.90;;;-148.53;100.00;63986.66;5052163;28;20033;-80
2023/05/13 02:00:36;;;;;;;11.18;7.00;;;8.70;99.90;;;-148.53;100.00;63986.66;5054091;28;20029;-80
2023/05/13 02:03:02;;;;;;;9.05;6.90;;;8.60;99.90;;;-148.53;100.00;63986.66;5054541;28;20703;-80
2023/05/13 02:05:30;;;;;;;10.88;7.85;;;8.40;99.90;;;-148.53;100.00;63986.66;5049946;28;20029;-80
2023/05/13 02:07:56;;;;;;;11.98;8.50;;;8.30;99.90;;;-148.53;100.00;63986.66;5070711;28;20037;-80
2023/05/13 02:10:21;;;;;;;10.23;8.20;;;8.30;99.90;;;-148.53;100.00;63986.66;5050355;28;20356;-80
2023/05/13 02:12:47;;;;;;;12.18;8.15;;;8.20;99.90;;;-148.53;100.00;63986.66;5055199;28;20646;-80
2023/05/13 02:15:13;;;;;;;10.30;7.95;;;8.10;99.90;;;-148.53;100.00;63986.66;5052269;28;20345;-80
2023/05/13 02:17:38;;;;;;;11.25;7.78;;;8.10;99.90;;;-148.53;100.00;63986.66;5051517;28;20124;-80
2023/05/13 02:20:06;;;;;;;9.55;6.93;;;8.10;99.90;;;-148.53;100.00;63986.66;5048067;28;20025;-80
2023/05/13 02:22:31;;;;;;;11.20;7.32;;;8.00;99.90;;;-148.53;100.00;63986.66;5049810;28;20099;-80
2023/05/13 02:24:57;;;;;;;11.00;8.45;;;7.90;99.90;;;-148.53;100.00;63986.66;5051610;28;20041;-79
2023/05/13 02:27:23;;;;;;;10.10;8.43;;;7.90;99.90;;;-148.53;100.00;63986.66;5055592;28;20043;-79
2023/05/13 02:29:49;;;;;;;12.98;7.57;;;8.10;99.90;;;-148.53;100.00;63986.66;5051706;28;20511;-80
2023/05/13 02:32:14;;;;;;;12.50;8.13;;;8.10;99.90;;;-148.53;100.00;63986.66;5059301;28;20033;-80
2023/05/13 02:34:40;;;;;;;11.57;8.00;;;8.00;99.90;;;-148.53;100.00;63986.66;5051622;28;20051;-80
2023/05/13 02:37:06;;;;;;;10.05;8.25;;;7.80;99.90;;;-148.53;100.00;63986.66;5055777;28;20063;-80
2023/05/13 02:39:37;;;;;;;11.45;8.48;;;7.70;99.90;;;-148.53;100.00;63986.66;5062525;28;20037;-80
2023/05/13 02:42:04;;;;;;;11.13;8.60;;;7.60;99.90;;;-148.53;100.00;63986.66;5056068;28;20036;-80
2023/05/13 02:44:31;;;;;;;13.02;8.80;;;7.50;99.90;;;-148.53;100.00;63986.66;5064492;28;20032;-80
2023/05/13 02:46:57;;;;;;;11.18;8.23;;;7.40;99.90;;;-148.53;100.00;63986.66;5051560;28;20044;-80
2023/05/13 02:49:23;;;;;;;11.60;8.80;;;7.50;99.90;;;-148.53;100.00;63986.66;5054975;28;20091;-80
2023/05/13 02:51:49;;;;;;;10.88;8.50;;;7.60;99.90;;;-148.53;100.00;63986.66;5051354;28;20040;-80
2023/05/13 02:54:16;;;;;;;11.20;8.65;;;7.70;99.90;;;-148.53;100.00;63986.66;5051297;28;20167;-79
2023/05/13 02:56:42;;;;;;;16.10;9.55;;;7.70;99.90;;;-148.53;100.00;63986.66;5050107;28;20610;-80
2023/05/13 02:59:08;;;;;;;10.00;8.10;;;7.80;99.90;;;-148.53;100.00;63986.66;5050183;28;20436;-80
2023/05/13 03:01:34;;;;;;;13.90;8.68;;;7.70;99.90;;;-148.53;100.00;63986.66;5050930;28;20032;-80
2023/05/13 03:04:00;;;;;;;9.80;8.30;;;7.60;99.90;;;-148.53;100.00;63986.66;5083053;28;20455;-80
2023/05/13 03:06:25;;;;;;;11.07;8.48;;;7.60;99.90;;;-148.53;100.00;63986.66;5055558;28;20037;-80
2023/05/13 03:08:51;;;;;;;12.32;8.65;;;7.60;99.90;;;-148.53;100.00;63986.66;5050989;28;20041;-80
2023/05/13 03:11:17;;;;;;;12.23;9.30;;;7.60;99.90;;;-148.53;100.00;63986.66;5054703;28;20033;-79
2023/05/13 03:13:42;;;;;;;12.65;8.45;;;7.70;99.90;;;-148.53;100.00;63986.66;5055145;28;20055;-80
2023/05/13 03:16:08;;;;;;;9.40;7.82;;;7.60;99.90;;;-148.53;100.00;63986.66;5053828;28;20032;-79
2023/05/13 03:18:34;;;;;;;10.85;8.80;;;7.60;99.90;;;-148.53;100.00;63986.66;5066574;28;20033;-79
2023/05/13 03:21:00;;;;;;;11.25;9.20;;;7.60;99.90;;;-148.53;100.00;63986.66;5053069;28;20174;-79
2023/05/13 03:23:26;;;;;;;10.82;8.60;;;7.50;99.90;;;-148.53;100.00;63986.66;5062397;28;20509;-79
2023/05/13 03:25:55;;;;;;;11.82;9.05;;;7.50;99.90;;;-148.53;100.00;63986.66;5060668;28;20378;-79
2023/05/13 03:28:21;;;;;;;12.70;8.85;;;7.50;99.90;;;-148.53;100.00;63986.66;5059746;28;20101;-79
2023/05/13 03:30:47;;;;;;;12.07;9.38;;;7.60;99.90;;;-148.53;100.00;63986.66;5068529;28;20055;-79
2023/05/13 03:33:16;;;;;;;10.45;8.60;;;7.60;99.90;;;-148.53;100.00;63986.66;5053057;28;20037;-79
2023/05/13 03:35:42;;;;;;;12.73;9.70;;;7.60;99.90;;;-148.53;100.00;63986.66;5053256;28;20504;-79
2023/05/13 03:38:08;;;;;;;11.73;8.65;;;7.50;99.90;;;-148.53;100.00;63986.66;5059997;28;20055;-79
2023/05/13 03:40:38;;;;;;;10.82;8.85;;;7.50;99.90;;;-148.53;100.00;63986.66;5059485;28;20028;-79
2023/05/13 03:43:05;;;;;;;13.60;9.38;;;7.50;99.90;;;-148.53;100.00;63986.66;5067889;28;20040;-80
2023/05/13 03:45:31;;;;;;;12.07;8.90;;;7.50;99.90;;;-148.53;100.00;63986.66;5063789;28;20181;-78
2023/05/13 03:48:03;;;;;;;10.32;8.50;;;7.50;99.90;;;-148.53;100.00;63986.66;5060538;28;20025;-79
2023/05/13 03:50:28;;;;;;;11.38;9.00;;;7.40;99.90;;;-148.53;100.00;63986.66;5053802;28;20082;-79
2023/05/13 03:52:55;;;;;;;11.40;8.50;;;7.40;99.90;;;-148.53;100.00;63986.66;5066224;28;20135;-79
2023/05/13 03:55:21;;;;;;;16.23;9.68;;;7.40;99.90;;;-148.53;100.00;63986.66;5067277;28;20078;-79
2023/05/13 03:57:48;;;;;;;13.57;9.75;;;7.40;99.90;;;-148.53;100.00;63986.66;5056694;28;20041;-78
2023/05/13 04:00:16;;;;;;;13.20;11.38;;;7.50;99.90;;;-148.53;100.00;63986.66;5064885;28;20504;-79
2023/05/13 04:02:42;;;;;;;14.95;9.80;;;7.60;99.90;;;-148.53;100.00;63986.66;5060488;28;20033;-78
2023/05/13 04:05:09;;;;;;;13.52;9.98;;;7.70;99.90;;;-148.53;100.00;63986.66;5058187;28;20029;-79
2023/05/13 04:07:35;;;;;;;15.55;9.85;;;7.90;99.90;;;-148.53;100.00;63986.66;5053909;28;20094;-79
2023/05/13 04:10:01;;;;;;;11.48;9.02;;;8.10;99.90;;;-148.53;100.00;63986.66;5051956;28;20062;-79
2023/05/13 04:12:26;;;;;;;13.02;9.18;;;8.30;99.90;;;-148.53;100.00;63986.66;5053703;28;20089;-77
2023/05/13 04:14:52;;;;;;;13.25;8.40;;;8.60;99.90;;;-148.53;100.00;63986.66;5064496;28;20032;-82
2023/05/13 04:17:18;;;;;;;10.38;8.23;;;8.80;99.90;;;-148.53;100.00;63986.66;5061158;28;20063;-78
2023/05/13 04:19:43;;;;;;;9.88;7.90;;;8.90;99.90;;;-148.53;100.00;63986.66;5053298;28;20106;-78
2023/05/13 04:22:09;;;;;;;9.68;8.38;;;9.00;99.90;;;-148.53;100.00;63986.66;5070320;28;20064;-80
2023/05/13 04:24:35;;;;;;;11.02;7.65;;;9.00;99.90;;;-148.53;100.00;63986.66;5061369;28;20047;-78
2023/05/13 04:27:00;;;;;;;11.02;8.32;;;9.00;99.90;;;-148.53;100.00;63986.66;5053618;28;20040;-80
2023/05/13 04:29:27;;;;;;;11.10;7.55;;;9.10;99.90;;;-148.53;100.00;63986.66;5057776;28;20047;-78
2023/05/13 04:31:53;;;;;;;10.60;8.13;;;9.10;99.90;;;-148.53;100.00;63986.66;5055173;28;20032;-80
2023/05/13 04:34:19;;;;;;;10.32;7.20;;;9.20;99.90;;;-148.53;100.00;63986.66;5052171;28;20477;-79
2023/05/13 04:36:47;;;;;;;9.25;7.22;;;9.20;99.90;;;-148.53;100.00;63986.66;5052436;28;20043;-79
2023/05/13 04:39:13;;;;;;;11.27;7.23;;;9.30;99.90;;;-148.53;100.00;63986.66;5062255;28;20498;-79
2023/05/13 04:41:39;;;;;;;10.10;7.57;;;9.30;99.90;;;-148.53;100.00;63986.66;5050850;28;20290;-80
2023/05/13 04:44:05;;;;;;;9.73;7.68;;;9.40;99.90;;;-148.53;100.00;63986.66;5055158;28;20059;-80
2023/05/13 04:46:31;;;;;;;9.52;7.43;;;9.40;99.90;;;-148.53;100.00;63986.66;5061215;28;20098;-80
2023/05/13 04:48:57;;;;;;;10.40;6.93;;;9.50;99.90;;;-148.53;100.00;63986.66;5058926;28;20052;-80
2023/05/13 04:51:23;;;;;;;10.50;7.10;;;9.60;99.90;;;-148.53;100.00;63986.66;5053240;28;20384;-80
2023/05/13 04:53:49;;;;;;;8.85;6.70;;;9.80;99.90;;;-148.53;100.00;63986.66;5056266;28;20043;-80
2023/05/13 04:56:15;;;;;;;8.98;6.43;;;9.90;99.90;;;-148.53;100.00;63986.66;5051571;28;20029;-81
2023/05/13 04:58:42;;;;;;;8.80;6.57;;;10.00;99.90;;;-148.53;100.00;63986.66;5056320;28;20465;-82
2023/05/13 05:01:08;;;;;;;9.68;7.20;;;10.10;99.90;;;-148.53;100.00;63986.66;5063487;28;20032;-81
2023/05/13 05:03:33;;;;;;;8.98;6.63;;;10.20;99.90;;;-148.53;100.00;63986.66;5065475;28;20033;-83
2023/05/13 05:05:59;;;;;;;10.55;6.65;;;10.20;99.90;;;-148.53;100.00;63986.66;5051409;28;20569;-82
2023/05/13 05:08:27;;;;;;;8.77;6.32;;;10.30;99.90;;;-148.53;100.00;63986.66;5051609;28;20028;-80
2023/05/13 05:10:53;;;;;;;8.32;6.72;;;10.40;99.90;;;-148.53;100.00;63986.66;5051448;28;20552;-82
2023/05/13 05:13:19;;;;;;;10.40;6.45;;;10.50;99.90;;;-148.53;100.00;63986.66;5063766;28;20088;-82
2023/05/13 05:15:45;;;;;;;7.28;6.00;;;10.60;99.90;;;-148.53;100.00;63986.66;5037131;28;20349;-82
2023/05/13 05:18:12;;;;;;;8.25;6.05;;;10.70;99.90;;;-148.53;100.00;63986.66;5068509;28;20082;-82
2023/05/13 05:20:39;;;;;;;10.45;6.20;;;10.80;99.90;;;-148.53;100.00;63986.66;5057188;28;20465;-81
2023/05/13 05:23:09;;;;;;;8.95;5.72;;;10.90;99.90;;;-148.53;100.00;63986.66;5056241;28;20033;-82
2023/05/13 05:25:35;;;;;;;8.57;6.07;;;11.00;99.90;;;-148.53;100.00;63986.66;5052267;28;20029;-81
2023/05/13 05:28:03;;;;;;;10.10;6.07;;;11.10;99.90;;;-148.53;100.00;63986.66;5092386;28;20048;-81
2023/05/13 05:30:38;;;;;;;10.45;6.68;;;11.10;99.90;;;-148.53;100.00;63986.66;5052567;28;20064;-81
2023/05/13 05:33:07;;;;;;;8.30;6.53;;;11.30;99.90;;;-148.53;100.00;63986.66;5065047;28;20119;-80
2023/05/13 05:35:37;;;;;;;8.02;6.28;;;11.40;99.90;;;-148.53;100.00;63986.66;5042501;28;20116;-83
2023/05/13 05:38:07;;;;;;;8.70;6.10;;;11.50;99.90;;;-148.53;100.00;63986.66;5050029;28;20140;-79
2023/05/13 05:40:38;;;;;;;11.35;6.38;;;11.60;99.90;;;-148.53;100.00;63986.66;5063790;28;20397;-80
2023/05/13 05:43:04;;;;;;;9.65;6.50;;;11.70;99.90;;;-148.53;100.00;63986.66;5051932;28;20033;-80
2023/05/13 05:45:29;;;;;;;12.57;6.55;;;11.80;99.90;;;-148.53;100.00;63986.66;5055479;28;20040;-80
2023/05/13 05:47:56;;;;;;;10.93;6.72;;;12.00;99.90;;;-148.53;100.00;63986.66;5051721;28;20021;-79
2023/05/13 05:50:22;;;;;;;9.57;6.13;;;12.00;99.90;;;-148.53;100.00;63986.66;5070393;28;20041;-80
2023/05/13 05:52:48;;;;;;;7.90;6.35;;;12.20;99.90;;;-148.53;100.00;63986.66;5066710;28;20029;-80
2023/05/13 05:55:15;;;;;;;10.10;5.90;;;12.30;99.90;;;-148.53;100.00;63986.66;5073227;28;20036;-80
2023/05/13 05:57:41;;;;;;;8.80;5.90;;;12.50;99.90;;;-148.53;100.00;63986.66;5047160;28;20045;-79
2023/05/13 06:00:07;;;;;;;7.25;5.85;;;12.60;99.90;;;-148.53;100.00;63986.66;5056638;28;20029;-80
2023/05/13 06:02:41;;;;;;;9.20;6.22;;;12.70;99.90;;;-148.53;100.00;63986.66;5052174;28;20040;-80
2023/05/13 06:05:07;;;;;;;8.90;6.10;;;12.80;99.90;;;-148.53;100.00;63986.66;5050225;28;20037;-79
2023/05/13 06:07:33;;;;;;;7.90;5.78;;;12.90;99.90;;;-148.53;100.00;63986.66;5055166;28;20024;-78
2023/05/13 06:09:59;;;;;;;11.75;6.05;;;13.10;99.90;;;-148.53;100.00;63986.66;5052366;28;20096;-79
2023/05/13 06:12:24;;;;;;;8.63;6.05;;;13.30;99.90;;;-148.53;100.00;63986.66;5051386;28;20047;-79
2023/05/13 06:14:50;;;;;;;11.95;5.60;;;13.50;99.90;;;-148.53;100.00;63986.66;5057466;28;20071;-79
2023/05/13 06:17:16;;;;;;;8.30;5.95;;;13.50;99.90;;;-148.53;100.00;63986.66;5052169;28;20052;-80
2023/05/13 06:19:42;;;;;;;11.13;5.50;;;13.60;99.90;;;-148.53;100.00;63986.66;5050997;28;20072;-81
2023/05/13 06:22:09;;;;;;;12.63;5.95;;;13.70;99.90;;;-148.53;100.00;63986.66;5067759;28;20118;-78
2023/05/13 06:24:35;;;;;;;10.80;5.20;;;13.80;99.90;;;-148.53;100.00;63986.66;5066688;28;20036;-79
2023/05/13 06:27:01;;;;;;;8.93;5.88;;;13.90;99.90;;;-148.53;100.00;63986.66;5059126;28;20136;-81
2023/05/13 06:29:28;;;;;;;7.53;5.22;;;14.10;99.90;;;-148.53;100.00;63986.66;5053431;28;20049;-79
2023/05/13 06:31:55;;;;;;;8.15;5.53;;;14.30;99.90;;;-148.53;100.00;63986.66;5061448;28;20388;-80
2023/05/13 06:34:21;;;;;;;9.57;5.72;;;14.40;99.90;;;-148.53;100.00;63986.66;5065453;28;20037;-81
2023/05/13 06:36:47;;;;;;;8.70;5.50;;;14.60;99.90;;;-148.53;100.00;63986.66;5039582;28;20151;-81
2023/05/13 06:39:12;;;;;;;9.30;5.35;;;14.70;99.90;;;-148.53;100.00;63986.66;5052102;28;20109;-80
2023/05/13 06:41:39;;;;;;;9.63;5.53;;;14.90;99.90;;;-148.53;100.00;63986.66;5049662;28;20025;-81
2023/05/13 06:44:10;;;;;;;7.68;5.40;;;15.10;99.90;;;-148.53;100.00;63986.66;5084226;28;20095;-84
2023/05/13 06:46:38;;;;;;;;;;;15.20;99.90;;;-148.53;100.00;63986.66;5061668;28;20029;-80
2023/05/13 06:49:04;;;;;;;14.95;5.57;;;15.20;99.90;;;-148.53;100.00;63986.66;5091701;28;19971;-79
2023/05/13 06:51:32;;;;;;;11.32;5.70;;;15.30;99.90;;;-148.53;100.00;63986.66;5054693;28;20141;-81
2023/05/13 06:53:57;;;;;;;11.35;5.88;;;15.30;99.90;;;-148.53;100.00;63986.66;5062445;28;20037;-81
2023/05/13 06:56:24;;;;;;;11.82;5.80;;;15.40;99.90;;;-148.53;100.00;63986.66;5061704;28;20029;-78
2023/05/13 06:58:51;;;;;;;7.50;4.90;;;;;;;-148.53;100.00;63986.66;5057641;28;20139;-81
2023/05/13 07:01:17;;;;;;;7.72;5.45;;;15.50;99.90;;;-148.53;100.00;63986.66;5061297;28;20044;-79
2023/05/13 07:03:44;;;;;;;15.30;5.50;;;15.80;99.90;;;-148.53;100.00;63986.66;5061861;28;20037;-82
2023/05/13 07:06:10;;;;;;;10.23;5.20;;;15.90;99.90;;;-148.53;100.00;63986.66;5059765;28;20041;-81
2023/05/13 07:08:37;;;;;;;8.38;5.40;;;16.00;99.90;;;-148.53;100.00;63986.66;5055188;28;20028;-81
2023/05/13 07:11:03;;;;;;;8.35;5.32;;;;;;;-148.53;100.00;63986.66;5073185;28;20111;-81
2023/05/13 07:13:32;;;;;;;9.65;5.43;;;;;;;-148.53;100.00;63986.66;5057497;28;20092;-80
2023/05/13 07:15:58;;;;;;;11.05;5.50;;;16.10;99.90;;;-148.53;100.00;63986.66;5067342;28;20071;-82
2023/05/13 07:18:24;;;;;;;9.45;5.72;;;16.60;99.90;;;-148.53;100.00;63986.66;5057508;28;20060;-81
2023/05/13 07:20:51;;;;;;;8.48;5.05;;;16.60;99.90;;;-148.53;100.00;63986.66;5062807;28;20035;-80
2023/05/13 07:23:16;;;;;;;10.50;6.40;;;16.60;99.90;;;-148.53;100.00;63986.66;5056042;28;20527;-81
2023/05/13 07:25:42;;;;;;;12.77;5.72;;;16.70;99.90;;;-148.53;100.00;63986.66;5056294;28;20029;-81
2023/05/13 07:28:08;;;;;;;9.02;6.00;;;16.70;99.90;;;-148.53;100.00;63986.66;5061756;28;20048;-80
2023/05/13 07:30:34;;;;;;;10.27;6.68;;;16.80;99.90;;;-148.53;100.00;63986.66;5056644;28;20375;-79
2023/05/13 07:33:00;;;;;;;9.57;5.60;;;16.80;99.90;;;-148.53;100.00;63986.66;5055420;28;20052;-79
2023/05/13 07:35:25;;;;;;;8.55;5.43;;;16.90;99.90;;;-148.53;100.00;63986.66;5065797;28;20037;-79
2023/05/13 07:37:51;;;;;;;9.00;6.15;;;16.90;99.90;;;-148.53;100.00;63986.66;5056171;28;20630;-80
2023/05/13 07:40:19;;;;;;;6.97;5.32;;;17.00;99.90;;;-148.53;100.00;63986.66;5056779;28;20036;-80
2023/05/13 07:42:45;;;;;;;;;;;17.20;99.90;;;-148.53;100.00;63986.66;5059682;28;20052;-80
2023/05/13 07:45:11;;;;;;;8.50;5.68;;;;;;;-148.53;100.00;63986.66;5056697;28;20540;-79
2023/05/13 07:47:37;;;;;;;7.30;5.68;;;;;;;-148.53;100.00;63986.66;5058313;28;20048;-78
2023/05/13 07:50:04;;;;;;;12.23;5.70;;;;;;;-148.53;100.00;63986.66;5060854;28;20029;-79
2023/05/13 07:52:31;;;;;;;8.23;5.85;;;17.30;99.90;;;-148.53;100.00;63986.66;5054446;28;20676;-80
2023/05/13 07:54:57;;;;;;;9.35;5.80;;;17.80;99.90;;;-148.53;100.00;63986.66;5057425;28;20097;-78
2023/05/13 07:57:22;;;;;;;9.13;5.90;;;17.80;99.90;;;-148.53;100.00;63986.66;5066171;28;20127;-79
2023/05/13 07:59:48;;;;;;;8.98;5.95;;;18.00;99.90;;;-148.53;100.00;63986.66;5061851;28;20036;-79
2023/05/13 08:02:14;;;;;;;12.13;6.45;;;18.00;99.90;;;-148.53;100.00;63986.66;5055227;28;20442;-79
2023/05/13 08:04:40;;;;;;;12.68;6.40;;;18.00;99.90;;;-148.53;100.00;63986.66;5060545;28;20040;-78
2023/05/13 08:07:08;;;;;;;9.90;6.45;;;18.10;99.90;;;-148.53;100.00;63986.66;5054776;28;20029;-77
2023/05/13 08:09:34;;;;;;;11.55;6.22;;;18.20;99.90;;;-148.53;100.00;63986.66;5057587;28;20032;-78
2023/05/13 08:12:00;;;;;;;12.07;6.40;;;18.40;99.90;;;-148.53;100.00;63986.66;5055832;28;20101;-78
2023/05/13 08:14:26;;;;;;;9.13;6.10;;;18.50;99.90;;;-148.53;100.00;63986.66;5065068;28;20046;-79
2023/05/13 08:16:51;;;;;;;8.93;6.43;;;18.60;99.90;;;-148.53;100.00;63986.66;5061733;28;20055;-78
2023/05/13 08:19:18;;;;;;;8.68;5.60;;;18.70;99.90;;;-148.53;100.00;63986.66;5070105;28;20041;-78
2023/05/13 08:21:44;;;;;;;11.80;7.30;;;;;;;-148.53;100.00;63986.66;5060949;28;20079;-79
2023/05/13 08:24:11;;;;;;;9.20;5.32;;;18.90;99.90;;;-148.53;100.00;63986.66;5057007;28;20119;-79
2023/05/13 08:26:36;;;;;;;7.55;6.10;;;19.00;99.90;;;-148.53;100.00;63986.66;5054111;28;20122;-78
2023/05/13 08:29:02;;;;;;;7.90;6.03;;;19.20;99.90;;;-148.53;100.00;63986.66;5053978;28;20068;-78
2023/05/13 08:31:28;;;;;;;9.10;5.97;;;19.20;99.90;;;-148.53;100.00;63986.66;5056255;28;20048;-79
2023/05/13 08:33:54;;;;;;;10.63;6.28;;;19.30;99.90;;;-148.53;100.00;63986.66;5062855;28;20045;-79
2023/05/13 08:36:21;;;;;;;9.38;5.88;;;19.40;99.90;;;-148.53;100.00;63986.66;5077564;28;20048;-78
2023/05/13 08:38:47;;;;;;;8.30;6.40;;;19.50;99.90;;;-148.53;100.00;63986.66;5054704;28;20037;-78
2023/05/13 08:41:14;;;;;;;10.70;6.25;;;19.60;99.90;;;-148.53;100.00;63986.66;5060284;28;20385;-78
2023/05/13 08:43:42;;;;;;;9.73;6.07;;;19.60;99.90;;;-148.53;100.00;63986.66;5066367;28;20043;-79
2023/05/13 08:46:11;;;;;;;11.43;5.80;;;19.80;99.90;;;-148.53;100.00;63986.66;5061926;28;20273;-79
2023/05/13 08:48:41;;;;;;;7.18;6.13;;;19.90;99.90;;;-148.53;100.00;63986.66;5053055;28;20449;-79
2023/05/13 08:51:11;;;;;;;8.27;6.22;;;20.20;99.90;;;-148.53;100.00;63986.66;5054587;28;20139;-79
2023/05/13 08:53:39;;;;;;;10.95;6.18;;;20.40;98.40;;;-148.53;100.00;63986.66;5054124;28;20087;-79
2023/05/13 08:56:08;;;;;;;10.35;5.90;;;20.50;99.60;;;-148.53;100.00;63986.66;5054139;28;20457;-79
2023/05/13 08:58:34;;;;;;;8.90;5.47;;;20.60;97.80;;;-148.53;100.00;63986.66;5054050;28;20040;-79
2023/05/13 09:01:01;;;;;;;11.15;5.88;;;20.70;96.60;;;-148.53;100.00;63986.66;5054919;28;20029;-78
2023/05/13 09:03:27;;;;;;;9.30;5.55;;;;;;;-148.53;100.00;63986.66;5054431;28;20036;-79
2023/05/13 09:05:53;;;;;;;8.85;6.07;;;20.80;97.00;;;-148.53;100.00;63986.66;5052182;28;20045;-78
2023/05/13 09:08:19;;;;;;;8.20;5.40;;;21.10;97.50;;;-148.53;100.00;63986.66;5055041;28;20110;-79
2023/05/13 09:10:46;;;;;;;9.25;5.70;;;;;;;-148.53;100.00;63986.66;5056100;28;20037;-79
2023/05/13 09:13:13;;;;;;;10.55;5.65;;;21.20;96.30;;;-148.53;100.00;63986.66;5064084;28;20547;-79
2023/05/13 09:15:42;;;;;;;11.40;5.43;;;21.60;93.80;;;-148.53;100.00;63986.66;5057238;28;20040;-78
2023/05/13 09:18:07;;;;;;;7.07;5.60;;;21.70;95.20;;;-148.53;100.00;63986.66;5065109;28;20033;-78
2023/05/13 09:20:34;;;;;;;11.00;4.97;;;;;;;-148.53;100.00;63986.66;5056479;28;20053;-79
2023/05/13 09:23:02;;;;;;;9.95;5.22;;;;;;;-148.53;100.00;63986.66;5060616;28;20033;-78
2023/05/13 09:25:29;;;;;;;;;;;;;;;-148.53;100.00;63986.66;5062781;28;20494;-80
2023/05/13 09:28:00;;;;;;;6.10;4.40;;;;;;;-148.53;100.00;63986.66;5052228;28;19966;-78
2023/05/13 09:30:35;;;;;;;9.25;5.15;;;;;;;-148.53;100.00;63986.66;5059381;28;20056;-79
2023/05/13 09:33:07;;;;;;;10.48;4.65;;;;;;;-148.53;100.00;63986.66;5067458;28;20093;-77
2023/05/13 09:35:38;;;;;;;7.85;4.68;;;;;;;-148.53;100.00;63986.66;5058812;28;20048;-79
2023/05/13 09:38:13;;;;;;;7.90;4.57;;;;;;;-148.53;100.00;63986.66;5051825;28;20119;-77
2023/05/13 09:40:40;;;;;;;7.40;4.57;;;;;;;-148.53;100.00;63986.66;5057019;28;20397;-80
2023/05/13 09:43:07;;;;;;;6.07;4.60;;;;;;;-148.53;100.00;63986.66;5065654;28;20032;-80
2023/05/13 09:45:34;;;;;;;6.90;4.53;;;;;;;-148.53;100.00;63986.66;5063613;28;20056;-79
2023/05/13 09:48:01;;;;;;;8.90;4.80;;;;;;;-148.53;100.00;63986.66;5053767;28;20294;-80
2023/05/13 09:50:27;;;;;;;8.40;4.90;;;;;;;-148.53;100.00;63986.66;5064142;28;20040;-79
2023/05/13 09:52:53;;;;;;;8.18;4.70;;;;;;;-148.53;100.00;63986.66;5062582;28;20440;-81
2023/05/13 09:55:22;;;;;;;6.00;4.85;;;;;;;-148.53;100.00;63986.66;5056945;28;20126;-79
2023/05/13 09:57:48;;;;;;;11.65;5.82;;;;;;;-148.53;100.00;63986.66;5066082;28;20210;-79
2023/05/13 10:00:14;;;;;;;7.78;4.22;;;;;;;-148.53;100.00;63986.66;5050113;28;20033;-79
2023/05/13 10:02:42;;;;;;;8.55;5.10;;;;;;;-148.53;100.00;63986.66;5056960;28;20203;-79
2023/05/13 10:05:08;;;;;;;8.00;4.43;;;;;;;-148.53;100.00;63986.66;5066042;28;20132;-78
2023/05/13 10:07:36;;;;;;;9.15;5.25;;;;;;;-148.53;100.00;63986.66;5055984;28;20029;-78